Terminal Aerodrome Forecast
Issued by NWS Midland/Odessa, TX

Home | Current Version | Previous Version | Text Only | Print | Product List | Glossary On
Versions: 1 2 3 4 5 6 7 8 9 10 11 12 13 14 15 16 17 18 19 20 21 22 23 24 25
000
FTUS44 KMAF 230500
TAFMAF
TAF
KMAF 230523Z 2306/2406 14014G20KT P6SM SKC
     FM231000 17010KT P6SM SCT130 BKN250 WS020/17035KT
     FM231400 18018G26KT P6SM FEW130 BKN250
     FM231800 21017G25KT P6SM SCT070 SCT250=

USA.gov is the U.S. government's official web portal to all federal, state and local government web resources and services.